Monterey, VA

6:44 PM EDT on September 20, 2014 (GMT -0400)
Petersburg | Change Station
CLOSE
Current Station
Airport
Location: Petersburg,
Elevation: 961 ft
Nearby Weather Stations

Elev 961 ft 38.99 °N, 79.15 °W | Updated 9 minutes ago

Clear
Clear
78 °F
Feels Like 78 °F
N
6
Wind Variable Wind from SSE

Today
High -- | Low -- °F
--% Chance of Precip.
Yesterday
High -- | Low -- °F
Precip. -- in
7:04 AM 7:18 PM
Waning Crescent, 10% visible
Pressure 30.03 in
Visibility 10.0 miles
Clouds Mostly Cloudy 7000 ft
Dew Point 53 °F
Humidity 42%
Rainfall 0.00 in
Snow Depth Not available.
UV 0 out of 12
Pollen 4.40 out of 12
Air Quality Not available.
Flu Activity Not available.
METAR KW99 202235Z AUTO 15005KT 10SM BKN070 26/12 A3003 RMK AO2 T02550118

More Conditions Fewer Conditions

Pressure 30.03 in
Visibility 10.0 miles
Clouds Mostly Cloudy 7000 ft
Dew Point 53 °F
Humidity 42%
Rainfall 0.00 in
Snow Depth Not available.
UV 0 out of 12
Pollen 4.40 out of 12
Air Quality Not available.
Flu Activity Not available.
METAR KW99 202235Z AUTO 15005KT 10SM BKN070 26/12 A3003 RMK AO2 T02550118

More Conditions Fewer Conditions

10-Day Weather Forecast

Almanac

Astronomy

Sep. 20, 2014 Rise Set
Actual Time 7:04 AM EDT 7:18 PM EDT
Civil Twilight 6:38 AM EDT 7:45 PM EDT
Nautical Twilight 6:07 AM EDT 8:15 PM EDT
Astronomical Twilight 5:35 AM EDT 8:47 PM EDT
Moon 3:44 AM EDT 5:19 PM EDT
Length of Visible Light 13h 07m
Length of Day
12h 14m
Tomorrow will be 2m 28s shorter.
Waning Crescent, 10% of the Moon is Illuminated
Today
Waning Crescent
Sep 24
New
Oct 1
First Quarter
Oct 8
Full
Oct 15
Last Quarter

Today's Extremes

State Highs State Lows

Community

WunderPhotos

Upload Photos

1,754,970 photos uploaded!

WunderBlogs® & News

Nearby

Snow Depth

Station Depth Elevation
No new snow has been reported.

Earthquake Activity

City Distance Mag. Time & Date
No recent earthquake activity has been reported nearby.
Minimum magnitude displayed is 2.5.

Coastal Water Temperatures

Place Temperature
No Stations Reporting

Nearby Weather Stations